createdAt,value
2023-01-29T00:01:36.641Z,5.40
2023-01-29T00:04:05.107Z,5.41
2023-01-29T00:06:33.194Z,5.41
2023-01-29T00:09:01.319Z,5.40
2023-01-29T00:11:31.935Z,5.42
2023-01-29T00:14:00.097Z,5.44
2023-01-29T00:16:28.348Z,5.46
2023-01-29T00:18:56.467Z,5.47
2023-01-29T00:21:24.950Z,5.51
2023-01-29T00:23:53.386Z,5.55
2023-01-29T00:26:21.571Z,5.58
2023-01-29T00:28:51.103Z,5.61
2023-01-29T00:31:21.899Z,5.63
2023-01-29T00:33:50.228Z,5.63
2023-01-29T00:36:21.829Z,5.63
2023-01-29T00:38:59.485Z,5.62
2023-01-29T00:41:45.976Z,5.61
2023-01-29T00:44:33.092Z,5.61
2023-01-29T00:47:01.318Z,5.61
2023-01-29T00:49:30.517Z,5.62
2023-01-29T00:52:16.179Z,5.63
2023-01-29T00:54:44.256Z,5.64
2023-01-29T00:57:12.351Z,5.66
2023-01-29T00:59:41.806Z,5.61
2023-01-29T01:02:27.442Z,5.60
2023-01-29T01:04:55.686Z,5.61
2023-01-29T01:07:23.824Z,5.59
2023-01-29T01:10:09.326Z,5.59
2023-01-29T01:12:37.421Z,5.59
2023-01-29T01:15:07.702Z,5.58
2023-01-29T01:17:36.073Z,5.58
2023-01-29T01:20:04.229Z,5.60
2023-01-29T01:22:32.330Z,5.64
2023-01-29T01:25:00.411Z,5.65
2023-01-29T01:27:28.551Z,5.65
2023-01-29T01:29:56.626Z,5.65
2023-01-29T01:32:26.140Z,5.64
2023-01-29T01:34:54.231Z,5.64
2023-01-29T01:37:22.355Z,5.65
2023-01-29T01:39:50.603Z,5.66
2023-01-29T01:42:18.684Z,5.68
2023-01-29T01:44:52.948Z,5.70
2023-01-29T01:47:23.348Z,5.76
2023-01-29T01:49:53.536Z,5.77
2023-01-29T01:52:22.509Z,5.80
2023-01-29T01:54:51.803Z,5.80
2023-01-29T01:57:25.018Z,5.80
2023-01-29T01:59:57.849Z,5.83
2023-01-29T02:02:44.449Z,5.84
2023-01-29T02:05:32.845Z,5.86
2023-01-29T02:08:18.653Z,5.86
2023-01-29T02:10:48.222Z,5.88
2023-01-29T02:13:18.589Z,5.91
2023-01-29T02:15:48.759Z,5.94
2023-01-29T02:18:17.864Z,5.96
2023-01-29T02:20:57.917Z,5.95
2023-01-29T02:24:01.512Z,5.96
2023-01-29T02:26:52.385Z,5.97
2023-01-29T02:29:33.364Z,5.95
2023-01-29T02:32:18.035Z,5.93
2023-01-29T02:35:11.846Z,5.91
2023-01-29T02:37:44.099Z,5.88
2023-01-29T02:40:20.670Z,5.86
2023-01-29T02:42:54.172Z,5.87
2023-01-29T02:45:29.518Z,5.86
2023-01-29T02:47:59.749Z,5.84
2023-01-29T02:50:33.093Z,5.80
2023-01-29T02:53:05.064Z,5.76
2023-01-29T02:55:37.790Z,5.77
2023-01-29T02:58:10.817Z,5.78
2023-01-29T03:00:42.431Z,5.80
2023-01-29T03:03:14.568Z,5.81
2023-01-29T03:05:53.354Z,5.81
2023-01-29T03:08:37.335Z,5.79
2023-01-29T03:11:07.675Z,5.79
2023-01-29T03:13:41.368Z,5.78
2023-01-29T03:16:15.369Z,5.78
2023-01-29T03:18:48.749Z,5.78
2023-01-29T03:21:37.659Z,5.78
2023-01-29T03:24:24.933Z,5.76
2023-01-29T03:27:11.497Z,5.74
2023-01-29T03:29:59.196Z,5.71
2023-01-29T03:32:29.991Z,5.69
2023-01-29T03:35:04.039Z,5.65
2023-01-29T03:37:35.599Z,5.66
2023-01-29T03:40:04.855Z,5.66
2023-01-29T03:42:40.015Z,5.66
2023-01-29T03:45:13.996Z,5.66
2023-01-29T03:47:47.134Z,5.64
2023-01-29T03:50:29.607Z,5.66
2023-01-29T03:53:04.897Z,5.68
2023-01-29T03:55:38.710Z,5.70
2023-01-29T03:58:11.812Z,5.70
2023-01-29T04:00:43.129Z,5.69
2023-01-29T04:03:18.408Z,5.69
2023-01-29T04:05:50.549Z,5.67
2023-01-29T04:08:23.842Z,5.69
2023-01-29T04:10:53.131Z,5.72
2023-01-29T04:13:21.406Z,5.74
2023-01-29T04:15:54.446Z,5.75
2023-01-29T04:18:25.019Z,5.73
2023-01-29T04:20:53.417Z,5.73
2023-01-29T04:23:22.939Z,5.73
2023-01-29T04:25:59.762Z,5.73
2023-01-29T04:28:35.823Z,5.73
2023-01-29T04:31:07.868Z,5.72
2023-01-29T04:33:45.668Z,5.73
2023-01-29T04:36:29.782Z,5.75
2023-01-29T04:39:05.477Z,5.75
2023-01-29T04:41:37.465Z,5.78
2023-01-29T04:44:09.677Z,5.79
2023-01-29T04:46:48.354Z,5.81
2023-01-29T04:49:25.927Z,5.83
2023-01-29T04:52:00.696Z,5.82
2023-01-29T04:54:35.807Z,5.82
2023-01-29T04:57:10.813Z,5.82
2023-01-29T04:59:43.389Z,5.79
2023-01-29T05:02:12.935Z,5.78
2023-01-29T05:04:44.954Z,5.75
2023-01-29T05:07:15.546Z,5.74
2023-01-29T05:09:44.855Z,5.73
2023-01-29T05:12:14.261Z,5.74
2023-01-29T05:14:45.329Z,5.78
2023-01-29T05:17:16.811Z,5.79
2023-01-29T05:19:46.853Z,5.80
2023-01-29T05:22:17.796Z,5.82
2023-01-29T05:24:46.591Z,5.83
2023-01-29T05:27:35.875Z,5.86
2023-01-29T05:30:04.231Z,5.88
2023-01-29T05:32:32.325Z,5.88
2023-01-29T05:35:01.828Z,5.89
2023-01-29T05:37:29.935Z,5.92
2023-01-29T05:39:58.030Z,5.93
2023-01-29T05:42:26.133Z,5.95
2023-01-29T05:44:54.483Z,5.95
2023-01-29T05:47:23.006Z,5.98
2023-01-29T05:49:51.082Z,6.02
2023-01-29T05:52:20.565Z,6.00
2023-01-29T05:54:49.056Z,6.00
2023-01-29T05:57:17.137Z,6.00
2023-01-29T05:59:45.222Z,5.99
2023-01-29T06:02:13.331Z,6.00
2023-01-29T06:04:41.448Z,5.98
2023-01-29T06:07:09.616Z,5.96
2023-01-29T06:09:39.095Z,5.93
2023-01-29T06:12:07.951Z,5.92
2023-01-29T06:14:36.054Z,5.93
2023-01-29T06:17:04.907Z,5.92
2023-01-29T06:19:33.009Z,5.93
2023-01-29T06:22:01.079Z,5.93
2023-01-29T06:24:29.241Z,5.93
2023-01-29T06:26:58.729Z,5.93
2023-01-29T06:29:26.840Z,5.95
2023-01-29T06:31:55.179Z,5.93
2023-01-29T06:34:23.363Z,5.92
2023-01-29T06:36:51.424Z,5.88
2023-01-29T06:39:19.536Z,5.88
2023-01-29T06:41:47.648Z,5.87
2023-01-29T06:44:17.126Z,5.92
2023-01-29T06:46:45.195Z,5.94
2023-01-29T06:49:13.338Z,5.97
2023-01-29T06:51:41.408Z,5.98
2023-01-29T06:54:10.506Z,5.98
2023-01-29T06:56:38.667Z,5.99
2023-01-29T06:59:07.022Z,5.98
2023-01-29T07:01:41.095Z,5.97
2023-01-29T07:04:09.318Z,5.96
2023-01-29T07:06:37.560Z,5.94
2023-01-29T07:09:06.052Z,5.93
2023-01-29T07:11:37.724Z,5.90
2023-01-29T07:14:06.129Z,5.90
2023-01-29T07:16:35.854Z,5.87
2023-01-29T07:19:03.963Z,5.87
2023-01-29T07:21:32.056Z,5.86
2023-01-29T07:24:00.189Z,5.83
2023-01-29T07:26:28.448Z,5.83
2023-01-29T07:28:56.511Z,5.84
2023-01-29T07:31:24.696Z,5.86
2023-01-29T07:33:54.349Z,5.82
2023-01-29T07:36:24.073Z,5.81
2023-01-29T07:38:52.422Z,5.78
2023-01-29T07:41:20.654Z,5.76
2023-01-29T07:43:48.811Z,5.72
2023-01-29T07:46:17.011Z,5.69
2023-01-29T07:48:45.276Z,5.66
2023-01-29T07:51:15.034Z,5.58
2023-01-29T07:53:44.369Z,5.51
2023-01-29T07:56:12.447Z,5.47
2023-01-29T07:58:40.527Z,5.45
2023-01-29T08:01:09.341Z,5.41
2023-01-29T08:03:37.755Z,5.39
2023-01-29T08:06:06.345Z,5.38
2023-01-29T08:08:35.832Z,5.36
2023-01-29T08:11:05.553Z,5.35
2023-01-29T08:13:34.312Z,5.32
2023-01-29T08:16:02.784Z,5.28
2023-01-29T08:18:31.545Z,5.30
2023-01-29T08:21:02.879Z,5.32
2023-01-29T08:23:31.425Z,5.36
2023-01-29T08:26:00.952Z,5.40
2023-01-29T08:28:29.064Z,5.42
2023-01-29T08:30:57.387Z,5.44
2023-01-29T08:33:38.676Z,5.46
2023-01-29T08:36:08.301Z,5.47
2023-01-29T08:38:36.479Z,5.49
2023-01-29T08:41:06.587Z,5.51
2023-01-29T08:43:36.865Z,5.53
2023-01-29T08:46:05.494Z,5.52
2023-01-29T08:48:33.902Z,5.52
2023-01-29T08:51:03.038Z,5.55
2023-01-29T08:53:31.270Z,5.57
2023-01-29T08:55:59.453Z,5.58
2023-01-29T08:58:28.920Z,5.62
2023-01-29T09:00:57.062Z,5.63
2023-01-29T09:03:25.133Z,5.64
2023-01-29T09:05:53.216Z,5.64
2023-01-29T09:08:21.282Z,5.63
2023-01-29T09:10:49.394Z,5.64
2023-01-29T09:13:17.488Z,5.62
2023-01-29T09:15:46.946Z,5.61
2023-01-29T09:18:15.022Z,5.58
2023-01-29T09:20:43.107Z,5.57
2023-01-29T09:23:12.033Z,5.55
2023-01-29T09:25:40.126Z,5.56
2023-01-29T09:28:08.230Z,5.53
2023-01-29T09:30:38.177Z,5.52
2023-01-29T09:33:08.467Z,5.53
2023-01-29T09:35:36.572Z,5.53
2023-01-29T09:38:04.748Z,5.55
2023-01-29T09:40:36.862Z,5.55
2023-01-29T09:43:08.293Z,5.56
2023-01-29T09:45:37.280Z,5.58
2023-01-29T09:48:11.682Z,5.59
2023-01-29T09:50:42.061Z,5.56
2023-01-29T09:53:18.265Z,5.57
2023-01-29T09:55:50.279Z,5.57
2023-01-29T09:58:23.944Z,5.58
2023-01-29T10:00:58.276Z,5.58
2023-01-29T10:03:42.508Z,5.61
2023-01-29T10:06:22.658Z,5.62
2023-01-29T10:09:16.065Z,5.59
2023-01-29T10:11:49.216Z,5.57
2023-01-29T10:14:22.984Z,5.57
2023-01-29T10:17:02.395Z,5.58
2023-01-29T10:19:59.064Z,5.61
2023-01-29T10:22:37.995Z,5.60
2023-01-29T10:25:11.291Z,5.60
2023-01-29T10:27:42.040Z,5.63
2023-01-29T10:30:23.131Z,5.63
2023-01-29T10:32:51.623Z,5.63
2023-01-29T10:35:23.886Z,5.68
2023-01-29T10:37:53.845Z,5.69
2023-01-29T10:40:23.582Z,5.69
2023-01-29T10:42:58.171Z,5.70
2023-01-29T10:45:32.759Z,5.71
2023-01-29T10:48:36.303Z,5.71
2023-01-29T10:51:14.507Z,5.73
2023-01-29T10:53:50.149Z,5.77
2023-01-29T10:56:35.409Z,5.79
2023-01-29T10:59:08.169Z,5.79
2023-01-29T11:01:36.293Z,5.80
2023-01-29T11:04:07.293Z,5.81
2023-01-29T11:06:37.908Z,5.87
2023-01-29T11:09:10.020Z,5.93
2023-01-29T11:11:45.033Z,5.97
2023-01-29T11:14:16.288Z,6.02
2023-01-29T11:16:46.839Z,6.06
2023-01-29T11:19:15.369Z,6.12
2023-01-29T11:21:58.117Z,6.16
2023-01-29T11:24:26.871Z,6.18
2023-01-29T11:26:57.216Z,6.15
2023-01-29T11:29:40.379Z,6.17
2023-01-29T11:32:12.804Z,6.19
2023-01-29T11:35:02.714Z,6.23
2023-01-29T11:37:37.605Z,6.27
2023-01-29T11:40:34.859Z,6.34
2023-01-29T11:43:14.452Z,6.41
2023-01-29T11:45:42.584Z,6.46
2023-01-29T11:48:15.907Z,6.47
2023-01-29T11:50:44.238Z,6.47
2023-01-29T11:53:28.313Z,6.55
2023-01-29T11:55:56.968Z,6.61
2023-01-29T11:58:30.258Z,6.58
2023-01-29T12:01:00.935Z,6.54
2023-01-29T12:03:35.673Z,6.52
2023-01-29T12:06:06.408Z,6.51
2023-01-29T12:08:39.226Z,6.51
2023-01-29T12:11:13.098Z,6.46
2023-01-29T12:13:43.281Z,6.45
2023-01-29T12:16:23.849Z,6.40
2023-01-29T12:18:55.837Z,6.37
2023-01-29T12:21:31.068Z,6.34
2023-01-29T12:24:05.779Z,6.35
2023-01-29T12:26:36.439Z,6.36
2023-01-29T12:29:25.667Z,6.39
2023-01-29T12:32:00.426Z,6.39
2023-01-29T12:34:34.331Z,6.35
2023-01-29T12:37:10.898Z,6.33
2023-01-29T12:39:40.388Z,6.27
2023-01-29T12:42:15.635Z,6.22
2023-01-29T12:44:46.764Z,6.19
2023-01-29T12:47:18.949Z,6.18
2023-01-29T12:49:51.559Z,6.16
2023-01-29T12:52:23.812Z,6.17
2023-01-29T12:54:57.067Z,6.17
2023-01-29T12:57:30.895Z,6.18
2023-01-29T13:00:02.761Z,6.13
2023-01-29T13:02:34.959Z,6.11
2023-01-29T13:05:07.025Z,6.11
2023-01-29T13:07:40.118Z,6.10
2023-01-29T13:10:15.066Z,6.06
2023-01-29T13:12:52.639Z,6.04
2023-01-29T13:15:25.150Z,6.04
2023-01-29T13:17:58.283Z,6.03
2023-01-29T13:20:30.611Z,6.04
2023-01-29T13:23:04.927Z,5.99
2023-01-29T13:25:34.369Z,5.95
2023-01-29T13:28:02.445Z,5.97
2023-01-29T13:30:32.082Z,5.96
2023-01-29T13:33:10.405Z,5.92
2023-01-29T13:35:41.612Z,5.91
2023-01-29T13:38:24.168Z,5.93
2023-01-29T13:40:55.128Z,5.94
2023-01-29T13:43:24.552Z,5.91
2023-01-29T13:45:53.944Z,5.87
2023-01-29T13:48:26.023Z,5.88
2023-01-29T13:50:54.783Z,5.88
2023-01-29T13:53:25.416Z,5.88
2023-01-29T13:55:55.064Z,5.87
2023-01-29T13:58:58.874Z,5.87
2023-01-29T14:02:00.389Z,5.83
2023-01-29T14:04:31.044Z,5.82
2023-01-29T14:06:59.835Z,5.80
2023-01-29T14:09:58.046Z,5.79
2023-01-29T14:12:42.873Z,5.81
2023-01-29T14:15:33.355Z,5.79
2023-01-29T14:18:16.076Z,5.79
2023-01-29T14:20:57.680Z,5.79
2023-01-29T14:23:36.763Z,5.81
2023-01-29T14:26:07.214Z,5.84
2023-01-29T14:28:36.779Z,5.88
2023-01-29T14:31:05.322Z,5.92
2023-01-29T14:33:37.279Z,5.92
2023-01-29T14:36:08.166Z,5.93
2023-01-29T14:38:36.440Z,5.92
2023-01-29T14:41:08.757Z,5.95
2023-01-29T14:43:38.213Z,5.94
2023-01-29T14:46:44.346Z,5.91
2023-01-29T14:49:12.531Z,5.91
2023-01-29T14:51:44.369Z,5.90
2023-01-29T14:54:26.350Z,5.93
2023-01-29T14:57:00.408Z,5.90
2023-01-29T14:59:37.366Z,5.87
2023-01-29T15:02:15.400Z,5.87
2023-01-29T15:04:47.529Z,5.88
2023-01-29T15:07:28.702Z,5.92
2023-01-29T15:10:21.110Z,5.93
2023-01-29T15:12:53.835Z,5.90
2023-01-29T15:15:33.159Z,5.91
2023-01-29T15:18:05.946Z,5.91
2023-01-29T15:20:35.424Z,5.92
2023-01-29T15:23:04.753Z,5.93
2023-01-29T15:25:37.463Z,5.94
2023-01-29T15:28:08.629Z,5.94
2023-01-29T15:30:38.715Z,5.94
2023-01-29T15:33:10.681Z,5.95
2023-01-29T15:35:40.323Z,5.94
2023-01-29T15:38:16.051Z,5.93
2023-01-29T15:40:53.006Z,5.94
2023-01-29T15:43:22.699Z,5.94
2023-01-29T15:45:57.654Z,5.95
2023-01-29T15:48:32.803Z,5.96
2023-01-29T15:51:01.324Z,5.99
2023-01-29T15:53:36.072Z,6.00
2023-01-29T15:56:08.896Z,6.00
2023-01-29T15:58:37.075Z,5.99
2023-01-29T16:01:07.581Z,6.00
2023-01-29T16:03:37.656Z,6.00
2023-01-29T16:06:07.260Z,5.99
2023-01-29T16:08:35.818Z,6.01
2023-01-29T16:11:07.148Z,6.03
2023-01-29T16:13:37.895Z,6.06
2023-01-29T16:16:20.935Z,6.07
2023-01-29T16:18:59.954Z,6.08
2023-01-29T16:21:31.446Z,6.08
2023-01-29T16:24:00.726Z,6.06
2023-01-29T16:26:32.616Z,6.05
2023-01-29T16:29:05.417Z,6.04
2023-01-29T16:31:36.531Z,6.04
2023-01-29T16:34:08.320Z,6.05
2023-01-29T16:36:36.794Z,6.04
2023-01-29T16:39:08.743Z,6.03
2023-01-29T16:41:38.298Z,5.99
2023-01-29T16:44:29.535Z,5.97
2023-01-29T16:47:07.233Z,5.96
2023-01-29T16:49:45.589Z,5.91
2023-01-29T16:52:23.687Z,5.86
2023-01-29T16:54:52.120Z,5.82
2023-01-29T16:57:24.124Z,5.78
2023-01-29T16:59:55.496Z,5.74
2023-01-29T17:02:28.428Z,5.74
2023-01-29T17:04:59.733Z,5.71
2023-01-29T17:07:28.549Z,5.71
2023-01-29T17:09:59.892Z,5.70
2023-01-29T17:12:28.938Z,5.69
2023-01-29T17:14:58.115Z,5.71
2023-01-29T17:17:32.522Z,5.69
2023-01-29T17:20:05.512Z,5.69
2023-01-29T17:22:33.614Z,5.68
2023-01-29T17:25:01.853Z,5.67
2023-01-29T17:27:30.147Z,5.64
2023-01-29T17:29:58.607Z,5.63
2023-01-29T17:32:44.748Z,5.62
2023-01-29T17:35:17.843Z,5.60
2023-01-29T17:37:46.217Z,5.59
2023-01-29T17:40:32.406Z,5.58
2023-01-29T17:43:00.473Z,5.57
2023-01-29T17:45:28.907Z,5.55
2023-01-29T17:47:57.071Z,5.53
2023-01-29T17:50:28.596Z,5.51
2023-01-29T17:52:56.782Z,5.49
2023-01-29T17:55:25.004Z,5.48
2023-01-29T17:57:53.100Z,5.46
2023-01-29T18:00:24.850Z,5.43
2023-01-29T18:02:53.128Z,5.41
2023-01-29T18:05:21.301Z,5.38
2023-01-29T18:07:52.234Z,5.38
2023-01-29T18:10:22.961Z,5.36
2023-01-29T18:12:51.052Z,5.32
2023-01-29T18:15:19.532Z,5.32
2023-01-29T18:17:48.579Z,5.34
2023-01-29T18:20:21.487Z,5.35
2023-01-29T18:22:50.992Z,5.37
2023-01-29T18:25:19.882Z,5.37
2023-01-29T18:27:48.249Z,5.38
2023-01-29T18:30:16.617Z,5.36
2023-01-29T18:32:44.697Z,5.34
2023-01-29T18:35:13.081Z,5.30
2023-01-29T18:37:41.182Z,5.27
2023-01-29T18:40:13.678Z,5.25
2023-01-29T18:42:41.797Z,5.21
2023-01-29T18:45:10.499Z,5.19
2023-01-29T18:47:38.897Z,5.18
2023-01-29T18:50:08.855Z,5.14
2023-01-29T18:52:36.942Z,5.13
2023-01-29T18:55:05.371Z,5.12
2023-01-29T18:58:27.287Z,5.13
2023-01-29T19:00:23.473Z,5.14
2023-01-29T19:02:51.752Z,5.14
2023-01-29T19:05:22.768Z,5.15
2023-01-29T19:07:52.163Z,5.16
2023-01-29T19:10:20.362Z,5.17
2023-01-29T19:12:49.870Z,5.15
2023-01-29T19:15:22.642Z,5.16
2023-01-29T19:17:50.980Z,5.16
2023-01-29T19:20:19.489Z,5.16
2023-01-29T19:22:48.337Z,5.18
2023-01-29T19:25:17.484Z,5.19
2023-01-29T19:27:45.943Z,5.19
2023-01-29T19:30:15.963Z,5.19
2023-01-29T19:32:44.050Z,5.21
2023-01-29T19:35:12.283Z,5.23
2023-01-29T19:37:40.352Z,5.24
2023-01-29T19:40:10.983Z,5.25
2023-01-29T19:42:39.781Z,5.26
2023-01-29T19:45:09.952Z,5.25
2023-01-29T19:47:40.968Z,5.27
2023-01-29T19:50:10.246Z,5.28
2023-01-29T19:52:50.715Z,5.30
2023-01-29T19:55:20.676Z,5.34
2023-01-29T19:57:49.028Z,5.37
2023-01-29T20:00:18.372Z,5.38
2023-01-29T20:02:47.913Z,5.41
2023-01-29T20:05:18.415Z,5.41
2023-01-29T20:07:46.950Z,5.39
2023-01-29T20:10:17.366Z,5.41
2023-01-29T20:12:46.565Z,5.41
2023-01-29T20:15:15.375Z,5.39
2023-01-29T20:17:43.596Z,5.39
2023-01-29T20:20:13.777Z,5.40
2023-01-29T20:22:41.985Z,5.40
2023-01-29T20:25:13.549Z,5.39
2023-01-29T20:27:41.870Z,5.40
2023-01-29T20:30:11.759Z,5.42
2023-01-29T20:32:39.835Z,5.42
2023-01-29T20:35:09.347Z,5.40
2023-01-29T20:37:38.871Z,5.41
2023-01-29T20:40:07.824Z,5.40
2023-01-29T20:42:35.902Z,5.41
2023-01-29T20:45:04.211Z,5.41
2023-01-29T20:47:32.313Z,5.42
2023-01-29T20:50:04.421Z,5.44
2023-01-29T20:52:32.505Z,5.45
2023-01-29T20:55:02.108Z,5.44
2023-01-29T20:57:30.456Z,5.42
2023-01-29T20:59:58.582Z,5.43
2023-01-29T21:02:26.702Z,5.41
2023-01-29T21:04:54.981Z,5.40
2023-01-29T21:07:23.263Z,5.39
2023-01-29T21:09:51.333Z,5.37
2023-01-29T21:12:20.858Z,5.37
2023-01-29T21:14:48.921Z,5.38
2023-01-29T21:17:17.032Z,5.38
2023-01-29T21:19:45.112Z,5.38
2023-01-29T21:22:13.259Z,5.39
2023-01-29T21:24:41.365Z,5.41
2023-01-29T21:27:09.456Z,5.44
2023-01-29T21:29:38.972Z,5.47
2023-01-29T21:32:09.117Z,5.51
2023-01-29T21:34:37.212Z,5.56
2023-01-29T21:37:05.319Z,5.58
2023-01-29T21:39:33.410Z,5.60
2023-01-29T21:42:18.845Z,5.65
2023-01-29T21:44:48.334Z,5.70
2023-01-29T21:47:16.464Z,5.73
2023-01-29T21:49:45.486Z,5.74
2023-01-29T21:52:15.187Z,5.76
2023-01-29T21:54:48.951Z,5.77
2023-01-29T21:57:17.829Z,5.81
2023-01-29T21:59:46.971Z,5.82
2023-01-29T22:02:22.347Z,5.85
2023-01-29T22:04:52.294Z,5.87
2023-01-29T22:07:20.437Z,5.92
2023-01-29T22:09:48.649Z,5.94
2023-01-29T22:12:16.847Z,5.95
2023-01-29T22:14:44.932Z,5.95
2023-01-29T22:17:13.429Z,5.97
2023-01-29T22:19:43.042Z,6.00
2023-01-29T22:22:14.538Z,5.97
2023-01-29T22:24:44.737Z,5.97
2023-01-29T22:27:13.240Z,5.98
2023-01-29T22:29:41.485Z,6.00
2023-01-29T22:32:11.210Z,6.01
2023-01-29T22:34:39.328Z,6.01
2023-01-29T22:37:08.859Z,6.01
2023-01-29T22:39:36.948Z,6.01
2023-01-29T22:42:05.244Z,6.01
2023-01-29T22:44:33.348Z,5.99
2023-01-29T22:47:01.904Z,6.01
2023-01-29T22:49:31.486Z,6.01
2023-01-29T22:52:11.269Z,6.02
2023-01-29T22:54:42.278Z,6.02
2023-01-29T22:57:11.279Z,6.02
2023-01-29T22:59:39.702Z,6.01
2023-01-29T23:02:08.682Z,6.02
2023-01-29T23:04:36.813Z,6.00
2023-01-29T23:07:05.144Z,5.99
2023-01-29T23:09:33.266Z,5.98
2023-01-29T23:12:02.743Z,5.98
2023-01-29T23:14:30.843Z,5.97
2023-01-29T23:16:58.913Z,5.98
2023-01-29T23:19:27.125Z,5.96
2023-01-29T23:21:55.180Z,5.95
2023-01-29T23:24:23.566Z,5.94
2023-01-29T23:27:09.252Z,5.94
2023-01-29T23:29:38.714Z,5.97
2023-01-29T23:32:07.115Z,5.98
2023-01-29T23:34:35.217Z,5.98
2023-01-29T23:37:03.304Z,5.99
2023-01-29T23:39:31.431Z,5.98
2023-01-29T23:41:59.545Z,5.99
2023-01-29T23:44:27.635Z,6.01
2023-01-29T23:46:57.325Z,6.02
2023-01-29T23:49:25.474Z,6.03
2023-01-29T23:51:53.595Z,6.02
2023-01-29T23:54:21.705Z,6.05
2023-01-29T23:56:49.843Z,6.06
2023-01-29T23:59:18.022Z,6.08
